Terminal Aerodrome Forecast
Issued by NWS Charleston, WV

Current Version | Previous Version | Graphics & Text | Print | Product List | Glossary On
Versions: 1 2 3 4 5 6 7 8 9 10 11 12 13 14 15 16 17 18 19 20 21 22 23 24 25
000
FTUS41 KRLX 272034 AAA
TAFBKW
TAF AMD
KBKW 272034Z 2721/2818 26008KT P6SM VCTS BKN035CB
     FM272200 26008KT P6SM BKN035
      TEMPO 2723/2802 2SM TSRA OVC035CB
     FM280200 26006KT P6SM VCTS BKN060CB
     FM280400 24004KT P6SM BKN025
     FM280600 00000KT P6SM BKN015
     FM281700 23010G16KT P6SM BKN110=

USA.gov is the U.S. government's official web portal to all federal, state and local government web resources and services.